createdAt,value
2018-12-29T00:00:58.814Z,1.10
2018-12-29T00:03:39.975Z,0.90
2018-12-29T00:06:21.749Z,0.90
2018-12-29T00:09:03.152Z,0.90
2018-12-29T00:11:44.256Z,0.90
2018-12-29T00:14:24.969Z,0.90
2018-12-29T00:17:06.676Z,0.90
2018-12-29T00:19:48.282Z,0.90
2018-12-29T00:22:29.558Z,0.90
2018-12-29T00:25:10.706Z,0.90
2018-12-29T00:27:51.956Z,0.90
2018-12-29T00:30:32.624Z,0.80
2018-12-29T00:33:13.863Z,0.90
2018-12-29T00:35:55.190Z,0.80
2018-12-29T00:38:25.100Z,0.80
2018-12-29T00:40:57.558Z,0.80
2018-12-29T00:43:46.036Z,0.80
2018-12-29T00:46:35.207Z,0.80
2018-12-29T00:49:23.962Z,0.80
2018-12-29T00:52:12.814Z,0.70
2018-12-29T00:55:01.579Z,0.50
2018-12-29T00:57:50.098Z,0.50
2018-12-29T01:00:39.370Z,0.50
2018-12-29T01:03:27.948Z,0.60
2018-12-29T01:06:19.618Z,0.50
2018-12-29T01:09:08.543Z,0.60
2018-12-29T01:11:57.206Z,0.60
2018-12-29T01:14:45.885Z,0.60
2018-12-29T01:17:34.850Z,0.70
2018-12-29T01:20:04.424Z,0.70
2018-12-29T01:22:46.029Z,0.80
2018-12-29T01:25:28.081Z,0.70
2018-12-29T01:28:09.583Z,0.80
2018-12-29T01:30:50.875Z,0.80
2018-12-29T01:33:32.797Z,0.80
2018-12-29T01:36:14.183Z,0.80
2018-12-29T01:38:55.896Z,0.60
2018-12-29T01:41:37.469Z,0.60
2018-12-29T01:44:18.851Z,0.50
2018-12-29T01:47:00.342Z,0.50
2018-12-29T01:49:41.926Z,0.50
2018-12-29T01:52:12.024Z,0.50
2018-12-29T01:55:00.596Z,0.60
2018-12-29T01:57:49.529Z,0.60
2018-12-29T02:00:38.635Z,0.60
2018-12-29T02:03:27.126Z,0.60
2018-12-29T02:06:08.649Z,0.40
2018-12-29T02:08:50.448Z,0.50
2018-12-29T02:11:31.782Z,0.60
2018-12-29T02:14:13.245Z,0.60
2018-12-29T02:16:54.960Z,0.60
2018-12-29T02:19:36.631Z,0.70
2018-12-29T02:22:18.597Z,0.70
2018-12-29T02:24:59.673Z,0.80
2018-12-29T02:27:41.235Z,0.90
2018-12-29T02:30:22.480Z,1.00
2018-12-29T02:33:04.003Z,1.00
2018-12-29T02:35:46.279Z,1.00
2018-12-29T02:38:27.309Z,1.00
2018-12-29T02:41:09.095Z,1.00
2018-12-29T02:46:33.729Z,1.00
2018-12-29T02:49:15.266Z,0.90
2018-12-29T02:51:56.111Z,0.80
2018-12-29T02:54:38.024Z,0.80
2018-12-29T02:57:19.551Z,0.80
2018-12-29T03:00:01.048Z,0.80
2018-12-29T03:02:42.586Z,0.90
2018-12-29T03:08:06.590Z,0.90
2018-12-29T03:10:48.219Z,0.90
2018-12-29T03:13:29.462Z,0.80
2018-12-29T03:16:11.875Z,0.80
2018-12-29T03:18:53.121Z,0.70
2018-12-29T03:21:34.928Z,0.60
2018-12-29T03:24:16.340Z,0.70
2018-12-29T03:26:57.418Z,0.70
2018-12-29T03:29:38.995Z,0.60
2018-12-29T03:35:26.150Z,0.60
2018-12-29T03:41:03.874Z,0.50
2018-12-29T03:43:54.524Z,0.50
2018-12-29T03:46:43.440Z,0.30
2018-12-29T03:49:32.201Z,0.30
2018-12-29T03:52:20.956Z,0.40
2018-12-29T03:55:09.700Z,0.40
2018-12-29T03:58:05.971Z,0.40
2018-12-29T04:00:54.667Z,0.50
2018-12-29T04:03:43.639Z,0.70
2018-12-29T04:06:32.535Z,0.60
2018-12-29T04:09:14.121Z,0.60
2018-12-29T04:11:55.689Z,0.60
2018-12-29T04:17:20.315Z,0.70
2018-12-29T04:20:02.509Z,0.70
2018-12-29T04:22:44.402Z,0.70
2018-12-29T04:25:15.370Z,0.80
2018-12-29T04:28:04.333Z,0.80
2018-12-29T04:30:53.054Z,0.80
2018-12-29T04:33:41.291Z,0.90
2018-12-29T04:36:29.478Z,0.90
2018-12-29T04:39:17.970Z,0.80
2018-12-29T04:42:06.182Z,1.00
2018-12-29T04:44:54.634Z,1.00
2018-12-29T04:47:42.850Z,1.00
2018-12-29T04:50:31.083Z,1.00
2018-12-29T04:53:19.619Z,0.90
2018-12-29T04:56:08.180Z,0.90
2018-12-29T04:58:56.402Z,0.80
2018-12-29T05:04:51.899Z,0.90
2018-12-29T05:07:40.091Z,0.80
2018-12-29T05:10:20.983Z,0.90
2018-12-29T05:13:02.245Z,0.80
2018-12-29T05:15:42.943Z,0.80
2018-12-29T05:18:23.398Z,0.80
2018-12-29T05:21:04.567Z,0.90
2018-12-29T05:23:45.827Z,0.90
2018-12-29T05:26:27.693Z,0.90
2018-12-29T05:29:08.567Z,0.90
2018-12-29T05:31:49.910Z,0.90
2018-12-29T05:34:30.624Z,0.80
2018-12-29T05:37:11.502Z,0.80
2018-12-29T05:39:52.932Z,0.80
2018-12-29T05:42:33.326Z,0.90
2018-12-29T05:45:14.368Z,0.90
2018-12-29T05:47:55.160Z,0.80
2018-12-29T05:50:36.176Z,0.80
2018-12-29T05:53:17.658Z,0.80
2018-12-29T05:55:58.103Z,0.80
2018-12-29T05:58:39.191Z,0.80
2018-12-29T06:01:20.084Z,0.90
2018-12-29T06:04:00.733Z,0.90
2018-12-29T06:06:42.495Z,0.90
2018-12-29T06:09:23.760Z,0.90
2018-12-29T06:12:04.300Z,0.80
2018-12-29T06:14:45.051Z,0.80
2018-12-29T06:17:26.149Z,0.80
2018-12-29T06:20:06.847Z,0.90
2018-12-29T06:22:47.791Z,0.80
2018-12-29T06:25:28.962Z,0.90
2018-12-29T06:28:09.684Z,0.90
2018-12-29T06:30:50.443Z,0.90
2018-12-29T06:33:31.592Z,1.00
2018-12-29T06:36:12.353Z,1.00
2018-12-29T06:38:52.987Z,1.00
2018-12-29T06:41:33.608Z,0.90
2018-12-29T06:44:14.400Z,0.90
2018-12-29T06:46:55.134Z,0.80
2018-12-29T06:49:36.579Z,0.90
2018-12-29T06:54:53.269Z,1.00
2018-12-29T06:57:34.306Z,0.90
2018-12-29T07:00:14.701Z,0.90
2018-12-29T07:02:56.170Z,0.90
2018-12-29T07:05:37.496Z,0.90
2018-12-29T07:08:18.716Z,0.90
2018-12-29T07:11:00.028Z,0.90
2018-12-29T07:13:41.235Z,0.80
2018-12-29T07:16:21.822Z,0.80
2018-12-29T07:19:02.783Z,0.90
2018-12-29T07:21:32.171Z,0.90
2018-12-29T07:24:20.956Z,1.00
2018-12-29T07:27:09.415Z,1.00
2018-12-29T07:29:50.227Z,1.00
2018-12-29T07:32:30.995Z,1.00
2018-12-29T07:35:11.717Z,1.00
2018-12-29T07:37:52.427Z,1.00
2018-12-29T07:40:33.942Z,1.00
2018-12-29T07:43:03.090Z,1.00
2018-12-29T07:45:51.878Z,1.00
2018-12-29T07:48:40.103Z,1.00
2018-12-29T07:51:28.295Z,1.10
2018-12-29T07:54:16.524Z,1.00
2018-12-29T07:57:04.996Z,1.10
2018-12-29T07:59:53.479Z,1.00
2018-12-29T08:02:41.939Z,1.00
2018-12-29T08:05:30.413Z,1.00
2018-12-29T08:08:18.896Z,1.10
2018-12-29T08:11:07.358Z,1.10
2018-12-29T08:13:55.567Z,1.10
2018-12-29T08:16:43.760Z,1.00
2018-12-29T08:19:31.970Z,1.00
2018-12-29T08:22:20.164Z,1.00
2018-12-29T08:25:08.388Z,1.10
2018-12-29T08:27:56.639Z,1.00
2018-12-29T08:30:37.036Z,0.90
2018-12-29T08:33:18.332Z,1.00
2018-12-29T08:35:59.187Z,0.90
2018-12-29T08:38:40.252Z,0.80
2018-12-29T08:41:20.873Z,0.90
2018-12-29T08:44:01.716Z,0.90
2018-12-29T08:46:42.551Z,0.90
2018-12-29T08:49:23.262Z,0.80
2018-12-29T08:52:04.376Z,0.90
2018-12-29T08:54:45.120Z,0.90
2018-12-29T08:57:25.947Z,0.90
2018-12-29T09:06:03.830Z,1.00
2018-12-29T09:08:44.908Z,1.00
2018-12-29T09:11:25.354Z,1.00
2018-12-29T09:14:06.338Z,1.00
2018-12-29T09:16:47.071Z,1.00
2018-12-29T09:19:27.716Z,1.00
2018-12-29T09:22:08.624Z,1.00
2018-12-29T09:24:49.291Z,1.10
2018-12-29T09:27:30.655Z,1.10
2018-12-29T09:29:59.866Z,1.20
2018-12-29T09:32:29.254Z,1.20
2018-12-29T09:34:58.415Z,1.30
2018-12-29T09:37:27.851Z,1.30
2018-12-29T09:39:56.955Z,1.30
2018-12-29T09:42:26.326Z,1.30
2018-12-29T09:44:55.878Z,1.30
2018-12-29T09:47:24.975Z,1.30
2018-12-29T09:49:54.790Z,1.40
2018-12-29T09:52:43.243Z,1.40
2018-12-29T09:55:31.570Z,1.50
2018-12-29T09:58:19.823Z,1.40
2018-12-29T10:01:08.053Z,1.40
2018-12-29T10:03:56.246Z,1.40
2018-12-29T10:06:44.472Z,1.40
2018-12-29T10:09:32.761Z,1.40
2018-12-29T10:12:20.955Z,1.50
2018-12-29T10:15:09.181Z,1.50
2018-12-29T10:17:57.405Z,1.50
2018-12-29T10:20:45.680Z,1.50
2018-12-29T10:23:26.158Z,1.40
2018-12-29T10:26:07.519Z,1.40
2018-12-29T10:28:47.903Z,1.30
2018-12-29T10:31:28.795Z,1.40
2018-12-29T10:34:10.142Z,1.30
2018-12-29T10:36:51.171Z,1.50
2018-12-29T10:39:32.184Z,1.50
2018-12-29T10:42:12.870Z,1.60
2018-12-29T10:44:53.458Z,1.70
2018-12-29T10:47:34.970Z,1.70
2018-12-29T10:50:16.138Z,1.80
2018-12-29T10:52:57.023Z,1.80
2018-12-29T10:55:38.484Z,1.90
2018-12-29T10:58:19.292Z,1.90
2018-12-29T11:01:00.041Z,2.00
2018-12-29T11:03:41.162Z,1.90
2018-12-29T11:06:21.903Z,2.00
2018-12-29T11:09:03.007Z,2.00
2018-12-29T11:11:43.729Z,2.00
2018-12-29T11:14:24.632Z,2.00
2018-12-29T11:17:05.804Z,2.00
2018-12-29T11:19:46.410Z,2.10
2018-12-29T11:22:27.606Z,2.10
2018-12-29T11:25:08.494Z,2.10
2018-12-29T11:27:49.144Z,2.00
2018-12-29T11:30:30.027Z,1.90
2018-12-29T11:33:11.183Z,2.00
2018-12-29T11:35:52.175Z,2.00
2018-12-29T11:38:33.220Z,2.00
2018-12-29T11:41:14.902Z,2.00
2018-12-29T11:43:56.428Z,2.10
2018-12-29T11:46:37.131Z,2.20
2018-12-29T11:49:18.288Z,2.20
2018-12-29T11:51:47.906Z,2.20
2018-12-29T11:54:36.103Z,2.20
2018-12-29T11:57:24.323Z,2.20
2018-12-29T12:00:05.320Z,2.20
2018-12-29T12:02:46.211Z,2.10
2018-12-29T12:05:26.975Z,2.10
2018-12-29T12:08:07.844Z,2.10
2018-12-29T12:10:37.341Z,2.20
2018-12-29T12:13:25.647Z,2.10
2018-12-29T12:16:14.113Z,2.20
2018-12-29T12:19:02.775Z,2.30
2018-12-29T12:21:51.331Z,2.40
2018-12-29T12:24:39.515Z,2.40
2018-12-29T12:27:27.734Z,2.40
2018-12-29T12:30:17.668Z,2.40
2018-12-29T12:33:06.354Z,2.60
2018-12-29T12:35:54.623Z,2.50
2018-12-29T12:38:42.931Z,2.50
2018-12-29T12:41:31.238Z,2.40
2018-12-29T12:44:21.680Z,2.40
2018-12-29T12:47:09.979Z,2.50
2018-12-29T12:49:58.250Z,2.50
2018-12-29T12:52:47.152Z,2.40
2018-12-29T12:55:35.751Z,2.40
2018-12-29T12:58:25.711Z,2.50
2018-12-29T13:01:08.782Z,2.50
2018-12-29T13:03:49.782Z,2.50
2018-12-29T13:06:30.911Z,2.50
2018-12-29T13:09:11.969Z,2.50
2018-12-29T13:11:53.195Z,2.50
2018-12-29T13:14:34.711Z,2.60
2018-12-29T13:17:16.130Z,2.60
2018-12-29T13:19:56.887Z,2.70
2018-12-29T13:22:37.419Z,2.70
2018-12-29T13:25:18.292Z,2.60
2018-12-29T13:27:59.541Z,2.60
2018-12-29T13:30:40.250Z,2.60
2018-12-29T13:33:21.029Z,2.60
2018-12-29T13:36:02.549Z,2.50
2018-12-29T13:38:43.987Z,2.60
2018-12-29T13:41:25.287Z,2.80
2018-12-29T13:43:54.535Z,2.70
2018-12-29T13:46:44.451Z,2.70
2018-12-29T13:49:32.792Z,2.70
2018-12-29T13:52:21.109Z,2.80
2018-12-29T13:55:09.379Z,2.70
2018-12-29T13:57:57.691Z,2.70
2018-12-29T14:00:39.236Z,2.70
2018-12-29T14:03:20.088Z,2.80
2018-12-29T14:06:00.551Z,2.80
2018-12-29T14:08:41.582Z,2.70
2018-12-29T14:11:22.330Z,2.60
2018-12-29T14:14:02.971Z,2.60
2018-12-29T14:16:43.716Z,2.50
2018-12-29T14:19:24.681Z,2.60
2018-12-29T14:22:05.832Z,2.50
2018-12-29T14:24:47.479Z,2.50
2018-12-29T14:27:28.572Z,2.50
2018-12-29T14:30:09.072Z,2.50
2018-12-29T14:32:49.966Z,2.50
2018-12-29T14:35:31.063Z,2.50
2018-12-29T14:38:12.052Z,2.50
2018-12-29T14:40:52.972Z,2.50
2018-12-29T14:43:22.199Z,2.50
2018-12-29T14:46:12.888Z,2.50
2018-12-29T14:49:01.352Z,2.50
2018-12-29T14:51:51.323Z,2.50
2018-12-29T14:54:40.102Z,2.40
2018-12-29T14:57:28.616Z,2.40
2018-12-29T15:00:17.133Z,2.40
2018-12-29T15:02:48.294Z,2.40
2018-12-29T15:05:36.817Z,2.50
2018-12-29T15:08:25.115Z,2.50
2018-12-29T15:11:13.320Z,2.40
2018-12-29T15:14:01.655Z,2.40
2018-12-29T15:16:42.310Z,2.40
2018-12-29T15:19:11.821Z,2.50
2018-12-29T15:22:00.343Z,2.40
2018-12-29T15:24:48.571Z,2.50
2018-12-29T15:27:37.151Z,2.50
2018-12-29T15:30:25.435Z,2.60
2018-12-29T15:33:14.128Z,2.70
2018-12-29T15:36:02.719Z,2.70
2018-12-29T15:38:51.984Z,2.60
2018-12-29T15:41:41.464Z,2.70
2018-12-29T15:44:30.003Z,2.70
2018-12-29T15:47:11.323Z,2.80
2018-12-29T15:49:52.620Z,2.80
2018-12-29T15:52:34.093Z,2.70
2018-12-29T15:55:15.252Z,2.70
2018-12-29T15:57:56.223Z,2.60
2018-12-29T16:00:36.814Z,2.60
2018-12-29T16:03:18.094Z,2.60
2018-12-29T16:05:59.430Z,2.60
2018-12-29T16:08:40.919Z,2.50
2018-12-29T16:11:26.109Z,2.50
2018-12-29T16:13:52.818Z,2.50
2018-12-29T16:16:41.075Z,2.50
2018-12-29T16:19:10.270Z,2.60
2018-12-29T16:21:39.476Z,2.60
2018-12-29T16:24:09.288Z,2.60
2018-12-29T16:26:57.883Z,2.40
2018-12-29T16:29:27.351Z,2.50
2018-12-29T16:31:56.803Z,2.40
2018-12-29T16:34:25.963Z,2.50
2018-12-29T16:37:14.631Z,2.50
2018-12-29T16:40:04.686Z,2.50
2018-12-29T16:42:54.948Z,2.50
2018-12-29T16:45:38.359Z,2.60
2018-12-29T16:48:19.758Z,2.60
2018-12-29T16:51:01.180Z,2.50
2018-12-29T16:53:42.825Z,2.60
2018-12-29T16:56:23.360Z,2.60
2018-12-29T16:59:03.946Z,2.60
2018-12-29T17:01:33.200Z,2.60
2018-12-29T17:04:02.360Z,2.60
2018-12-29T17:06:32.702Z,2.60
2018-12-29T17:09:21.255Z,2.60
2018-12-29T17:11:52.520Z,2.70
2018-12-29T17:14:21.344Z,2.70
2018-12-29T17:16:50.526Z,2.70
2018-12-29T17:19:19.750Z,2.70
2018-12-29T17:22:01.375Z,2.80
2018-12-29T17:24:41.871Z,2.70
2018-12-29T17:27:23.421Z,2.80
2018-12-29T17:30:04.159Z,2.80
2018-12-29T17:32:44.887Z,2.90
2018-12-29T17:35:26.182Z,2.90
2018-12-29T17:38:07.064Z,2.90
2018-12-29T17:40:48.787Z,2.90
2018-12-29T17:43:29.849Z,2.90
2018-12-29T17:46:11.209Z,3.00
2018-12-29T17:48:40.547Z,3.00
2018-12-29T17:51:28.778Z,3.00
2018-12-29T17:54:17.034Z,2.90
2018-12-29T17:56:46.768Z,3.00
2018-12-29T17:59:35.609Z,2.90
2018-12-29T18:02:23.928Z,3.00
2018-12-29T18:05:12.191Z,2.90
2018-12-29T18:08:00.515Z,2.90
2018-12-29T18:10:48.998Z,2.90
2018-12-29T18:13:38.946Z,2.80
2018-12-29T18:16:27.490Z,2.80
2018-12-29T18:19:15.788Z,2.90
2018-12-29T18:22:04.346Z,2.80
2018-12-29T18:24:52.915Z,2.90
2018-12-29T18:27:41.196Z,2.80
2018-12-29T18:30:29.513Z,2.80
2018-12-29T18:33:17.843Z,2.90
2018-12-29T18:36:06.631Z,2.80
2018-12-29T18:38:54.930Z,2.80
2018-12-29T18:41:43.667Z,2.80
2018-12-29T18:44:33.608Z,2.70
2018-12-29T18:47:22.160Z,2.90
2018-12-29T18:50:03.431Z,2.90
2018-12-29T18:52:43.982Z,3.00
2018-12-29T18:55:24.958Z,2.90
2018-12-29T18:58:06.383Z,2.80
2018-12-29T19:00:47.223Z,2.90
2018-12-29T19:03:28.407Z,2.80
2018-12-29T19:06:09.542Z,2.90
2018-12-29T19:08:50.680Z,2.90
2018-12-29T19:11:31.496Z,3.00
2018-12-29T19:14:12.836Z,3.00
2018-12-29T19:16:54.822Z,3.10
2018-12-29T19:19:35.815Z,3.10
2018-12-29T19:22:16.643Z,3.20
2018-12-29T19:24:57.698Z,3.20
2018-12-29T19:27:38.856Z,3.20
2018-12-29T19:30:20.280Z,3.20
2018-12-29T19:33:02.063Z,3.20
2018-12-29T19:35:43.058Z,3.20
2018-12-29T19:38:24.588Z,3.20
2018-12-29T19:41:05.970Z,3.20
2018-12-29T19:43:47.419Z,3.20
2018-12-29T19:46:29.037Z,3.10
2018-12-29T19:49:10.430Z,3.10
2018-12-29T19:51:51.351Z,3.10
2018-12-29T19:54:20.994Z,3.00
2018-12-29T19:57:09.472Z,3.00
2018-12-29T19:59:59.943Z,2.90
2018-12-29T20:02:50.139Z,3.00
2018-12-29T20:05:39.156Z,3.00
2018-12-29T20:08:27.349Z,3.00
2018-12-29T20:11:15.825Z,3.00
2018-12-29T20:14:04.365Z,3.00
2018-12-29T20:16:52.661Z,3.00
2018-12-29T20:19:41.468Z,3.00
2018-12-29T20:22:10.599Z,3.00
2018-12-29T20:24:58.892Z,3.10
2018-12-29T20:27:47.421Z,3.20
2018-12-29T20:30:35.997Z,3.20
2018-12-29T20:33:24.341Z,3.20
2018-12-29T20:36:13.151Z,3.20
2018-12-29T20:39:01.461Z,3.20
2018-12-29T20:41:49.756Z,3.20
2018-12-29T20:44:38.102Z,3.30
2018-12-29T20:47:26.643Z,3.20
2018-12-29T20:50:14.955Z,3.30
2018-12-29T20:55:51.448Z,3.20
2018-12-29T20:58:41.378Z,3.30
2018-12-29T21:01:30.166Z,3.30
2018-12-29T21:04:18.436Z,3.30
2018-12-29T21:07:06.724Z,3.20
2018-12-29T21:09:55.311Z,3.20
2018-12-29T21:12:43.903Z,3.10
2018-12-29T21:15:32.103Z,3.20
2018-12-29T21:18:20.322Z,3.10
2018-12-29T21:21:08.599Z,3.10
2018-12-29T21:23:57.274Z,3.10
2018-12-29T21:26:38.405Z,3.20
2018-12-29T21:29:19.460Z,3.10
2018-12-29T21:32:00.865Z,3.20
2018-12-29T21:34:41.907Z,3.20
2018-12-29T21:37:22.610Z,3.20
2018-12-29T21:40:03.335Z,3.20
2018-12-29T21:42:43.864Z,3.20
2018-12-29T21:45:25.003Z,3.20
2018-12-29T21:48:06.640Z,3.20
2018-12-29T21:50:48.728Z,3.20
2018-12-29T21:53:30.155Z,3.30
2018-12-29T21:56:10.851Z,3.20
2018-12-29T21:58:52.027Z,3.30
2018-12-29T22:01:33.366Z,3.30
2018-12-29T22:04:14.604Z,3.30
2018-12-29T22:06:55.696Z,3.30
2018-12-29T22:09:37.181Z,3.40
2018-12-29T22:12:18.627Z,3.40
2018-12-29T22:15:00.015Z,3.40
2018-12-29T22:17:40.994Z,3.40
2018-12-29T22:20:22.547Z,3.50
2018-12-29T22:23:03.569Z,3.60
2018-12-29T22:25:48.380Z,3.70
2018-12-29T22:28:27.555Z,3.70
2018-12-29T22:31:08.295Z,3.80
2018-12-29T22:33:49.364Z,3.90
2018-12-29T22:36:30.340Z,3.80
2018-12-29T22:39:10.884Z,3.90
2018-12-29T22:41:51.927Z,4.00
2018-12-29T22:44:32.767Z,4.00
2018-12-29T22:47:13.761Z,4.10
2018-12-29T22:49:54.704Z,4.10
2018-12-29T22:52:35.543Z,4.10
2018-12-29T22:55:16.359Z,4.00
2018-12-29T22:57:57.236Z,4.10
2018-12-29T23:00:42.390Z,4.20
2018-12-29T23:03:23.612Z,4.20
2018-12-29T23:06:05.285Z,4.20
2018-12-29T23:08:45.945Z,4.20
2018-12-29T23:11:26.949Z,4.20
2018-12-29T23:14:07.759Z,4.20
2018-12-29T23:16:48.313Z,4.20
2018-12-29T23:19:29.268Z,4.20
2018-12-29T23:22:09.752Z,4.20
2018-12-29T23:24:50.264Z,4.30
2018-12-29T23:27:31.227Z,4.20
2018-12-29T23:30:12.520Z,4.30
2018-12-29T23:32:53.690Z,4.30
2018-12-29T23:35:34.835Z,4.20
2018-12-29T23:38:15.892Z,4.20
2018-12-29T23:40:56.795Z,4.20
2018-12-29T23:43:37.504Z,4.30
2018-12-29T23:46:18.251Z,4.30
2018-12-29T23:48:58.945Z,4.40
2018-12-29T23:51:40.099Z,4.40
2018-12-29T23:54:21.329Z,4.50
2018-12-29T23:57:02.676Z,4.60
2018-12-29T23:59:43.767Z,4.60
